Time;durP1;ratioP1;P1;durP2;ratioP2;P2;SDS_P1;SDS_P2;PMS_P1;PMS_P2;Temp;Humidity;BMP_temperature;BMP_pressure;BME280_temperature;BME280_humidity;BME280_pressure;Samples;Min_cycle;Max_cycle;Signal;HPM_P1;HPM_P2
2021/09/25 00:00:30;;;;;;;3.23;1.30;;;;;;;10.63;86.45;99574.73;1642684;85;21940;-68
2021/09/25 00:03:03;;;;;;;3.53;1.40;;;;;;;10.60;86.66;99579.84;1641803;86;21295;-68
2021/09/25 00:05:36;;;;;;;3.97;1.37;;;;;;;10.58;86.83;99580.10;1645825;86;21341;-68
2021/09/25 00:08:07;;;;;;;3.00;1.20;;;;;;;10.58;87.02;99595.33;1640921;85;21344;-68
2021/09/25 00:10:50;;;;;;;3.10;1.30;;;;;;;10.56;87.04;99591.08;1647600;85;21304;-67
2021/09/25 00:13:30;;;;;;;2.87;1.10;;;;;;;10.57;87.18;99594.53;1621523;86;21276;-68
2021/09/25 00:16:07;;;;;;;4.27;1.40;;;;;;;10.57;87.28;99601.21;1624369;87;21432;-68
2021/09/25 00:18:35;;;;;;;3.60;1.20;;;;;;;10.57;87.30;99598.54;1619882;87;21250;-68
2021/09/25 00:21:07;;;;;;;6.30;1.20;;;;;;;10.57;87.27;99602.55;1648073;85;21364;-68
2021/09/25 00:23:43;;;;;;;4.77;1.27;;;;;;;10.59;87.44;99600.92;1631815;86;21431;-68
2021/09/25 00:26:33;;;;;;;4.00;1.17;;;;;;;10.56;87.71;99605.77;1637497;86;22132;-69
2021/09/25 00:29:00;;;;;;;3.67;1.10;;;;;;;10.54;87.98;99611.91;1638275;86;21318;-68
2021/09/25 00:31:27;;;;;;;2.23;1.10;;;;;;;10.48;88.10;99605.01;1635435;86;21420;-68
2021/09/25 00:33:54;;;;;;;3.50;1.17;;;;;;;10.44;88.31;99603.98;1635377;86;21435;-68
2021/09/25 00:36:20;;;;;;;5.50;1.43;;;;;;;10.41;88.52;99598.41;1644637;85;21673;-68
2021/09/25 00:38:47;;;;;;;6.57;1.60;;;;;;;10.40;88.80;99593.61;1647150;85;21453;-68
2021/09/25 00:41:14;;;;;;;5.30;1.30;;;;;;;10.36;88.90;99599.22;1643624;85;21432;-68
2021/09/25 00:43:41;;;;;;;4.67;1.40;;;;;;;10.36;89.08;99605.11;1640318;85;21387;-69
2021/09/25 00:46:07;;;;;;;3.67;1.20;;;;;;;10.33;89.21;99619.28;1639336;85;21379;-69
2021/09/25 00:48:34;;;;;;;4.47;1.20;;;;;;;10.32;89.21;99615.55;1654735;85;21310;-68
2021/09/25 00:51:01;;;;;;;1.93;0.90;;;;;;;10.31;89.26;99616.08;1645755;85;21421;-78
2021/09/25 00:53:27;;;;;;;3.97;1.40;;;;;;;10.32;89.28;99616.34;1646359;85;21342;-72
2021/09/25 00:55:54;;;;;;;3.10;1.07;;;;;;;10.33;89.22;99623.80;1644835;85;21841;-72
2021/09/25 00:58:21;;;;;;;2.40;0.97;;;;;;;10.32;89.07;99627.02;1637105;85;21335;-70
2021/09/25 01:00:47;;;;;;;3.20;1.17;;;;;;;10.33;89.07;99631.30;1643959;85;21566;-71
2021/09/25 01:03:14;;;;;;;6.67;1.40;;;;;;;10.35;89.03;99628.33;1636138;85;21373;-71
2021/09/25 01:05:44;;;;;;;3.37;1.00;;;;;;;10.36;88.91;99636.59;1649219;85;21217;-71
2021/09/25 01:08:09;;;;;;;2.20;0.93;;;;;;;10.37;88.79;99641.42;1654273;85;21144;-71
2021/09/25 01:10:35;;;;;;;3.23;1.17;;;;;;;10.39;88.77;99640.59;1653753;85;21266;-73
2021/09/25 01:13:02;;;;;;;4.33;1.27;;;;;;;10.40;88.60;99641.66;1644532;85;21406;-72
2021/09/25 01:15:29;;;;;;;3.50;1.00;;;;;;;10.41;88.45;99641.12;1637766;85;21196;-72
2021/09/25 01:17:56;;;;;;;3.93;1.30;;;;;;;10.43;88.37;99653.63;1636212;85;21773;-72
2021/09/25 01:20:23;;;;;;;3.73;1.10;;;;;;;10.43;88.23;99645.11;1647199;85;21323;-72
2021/09/25 01:22:49;;;;;;;2.30;1.13;;;;;;;10.44;88.11;99646.70;1655060;85;21372;-72
2021/09/25 01:25:16;;;;;;;3.50;1.20;;;;;;;10.44;87.96;99660.05;1637050;85;21404;-73
2021/09/25 01:27:43;;;;;;;3.87;1.20;;;;;;;10.45;87.90;99658.95;1649778;85;21380;-71
2021/09/25 01:30:13;;;;;;;4.33;1.27;;;;;;;10.46;87.59;99649.07;1643151;85;21404;-72
2021/09/25 01:32:40;;;;;;;6.20;1.23;;;;;;;10.47;87.24;99646.69;1638668;85;21356;-72
2021/09/25 01:35:08;;;;;;;6.17;1.30;;;;;;;10.48;86.76;99642.93;1632310;85;21425;-70
2021/09/25 01:37:34;;;;;;;4.03;1.00;;;;;;;10.49;86.66;99633.83;1642384;85;21855;-72
2021/09/25 01:40:01;;;;;;;3.93;1.00;;;;;;;10.49;86.56;99643.97;1647056;85;21265;-71
2021/09/25 01:42:28;;;;;;;1.83;0.90;;;;;;;10.49;86.28;99647.98;1646705;85;21436;-71
2021/09/25 01:44:54;;;;;;;5.50;1.07;;;;;;;10.49;86.23;99653.31;1650608;85;21759;-72
2021/09/25 01:47:21;;;;;;;2.63;0.90;;;;;;;10.51;86.17;99651.72;1637770;85;21427;-71
2021/09/25 01:49:48;;;;;;;2.67;1.00;;;;;;;10.51;86.10;99651.17;1639842;85;21302;-71
2021/09/25 01:52:16;;;;;;;3.77;1.00;;;;;;;10.52;85.99;99648.76;1623110;86;21343;-71
2021/09/25 01:54:43;;;;;;;4.83;1.20;;;;;;;10.51;85.81;99655.18;1615893;87;21192;-71
2021/09/25 01:57:10;;;;;;;3.30;0.87;;;;;;;10.51;85.69;99662.40;1648025;85;22505;-71
2021/09/25 01:59:36;;;;;;;2.80;0.87;;;;;;;10.51;85.69;99659.19;1648553;86;21232;-72
2021/09/25 02:02:03;;;;;;;3.07;0.90;;;;;;;10.53;85.79;99671.73;1644582;85;21920;-71
2021/09/25 02:04:30;;;;;;;3.87;1.00;;;;;;;10.53;85.84;99681.08;1617843;86;21738;-71
2021/09/25 02:06:57;;;;;;;4.17;0.90;;;;;;;10.54;85.68;99678.66;1622716;86;21299;-71
2021/09/25 02:09:23;;;;;;;3.57;1.00;;;;;;;10.55;85.58;99690.13;1622776;87;21302;-71
2021/09/25 02:11:50;;;;;;;3.67;1.10;;;;;;;10.56;85.50;99693.88;1621138;86;21262;-72
2021/09/25 02:14:17;;;;;;;3.77;1.10;;;;;;;10.59;85.53;99704.52;1615018;87;21256;-71
2021/09/25 02:16:44;;;;;;;2.47;0.77;;;;;;;10.61;85.53;99705.59;1648796;85;21297;-71
2021/09/25 02:19:11;;;;;;;3.07;1.03;;;;;;;10.61;85.42;99715.73;1620420;86;21360;-72
2021/09/25 02:21:38;;;;;;;2.87;0.90;;;;;;;10.60;85.24;99714.14;1621360;86;21342;-71
2021/09/25 02:24:05;;;;;;;2.37;1.00;;;;;;;10.61;85.13;99722.41;1616339;87;21288;-72
2021/09/25 02:26:31;;;;;;;3.90;0.93;;;;;;;10.64;85.20;99722.39;1623499;86;21385;-72
2021/09/25 02:28:58;;;;;;;3.50;1.10;;;;;;;10.65;85.13;99717.30;1612585;87;21414;-71
2021/09/25 02:31:24;;;;;;;3.23;1.10;;;;;;;10.67;85.08;99724.52;1622768;86;21401;-71
2021/09/25 02:33:51;;;;;;;3.93;1.17;;;;;;;10.69;85.09;99743.17;1622268;86;21359;-71
2021/09/25 02:36:17;;;;;;;2.70;0.80;;;;;;;10.70;84.98;99755.47;1649219;85;21346;-71
2021/09/25 02:38:44;;;;;;;3.33;1.20;;;;;;;10.70;84.89;99744.78;1648127;85;21451;-71
2021/09/25 02:41:10;;;;;;;5.30;1.23;;;;;;;10.72;84.87;99746.62;1646113;85;21580;-71
2021/09/25 02:43:37;;;;;;;2.60;1.00;;;;;;;10.75;84.75;99754.08;1638348;86;21288;-71
2021/09/25 02:46:03;;;;;;;2.00;0.90;;;;;;;10.77;84.68;99765.84;1633910;85;21352;-71
2021/09/25 02:48:30;;;;;;;2.47;1.00;;;;;;;10.77;84.58;99766.63;1641842;85;21395;-71
2021/09/25 02:50:57;;;;;;;3.10;1.03;;;;;;;10.77;84.47;99764.50;1635142;85;21283;-71
2021/09/25 02:53:24;;;;;;;2.17;0.90;;;;;;;10.77;84.50;99766.63;1646331;85;21343;-71
2021/09/25 02:55:51;;;;;;;2.30;1.00;;;;;;;10.78;84.43;99770.89;1648991;85;21374;-72
2021/09/25 02:58:18;;;;;;;3.87;1.00;;;;;;;10.80;84.48;99775.43;1644344;85;21411;-71
2021/09/25 03:00:45;;;;;;;2.87;1.10;;;;;;;10.80;84.48;99782.11;1646464;85;21178;-71
2021/09/25 03:03:12;;;;;;;4.77;1.27;;;;;;;10.80;84.38;99790.66;1650656;85;21340;-71
2021/09/25 03:05:39;;;;;;;2.83;0.90;;;;;;;10.80;84.28;99792.80;1647116;85;21800;-71
2021/09/25 03:08:06;;;;;;;4.40;1.10;;;;;;;10.80;84.17;99794.13;1644708;85;21458;-72
2021/09/25 03:10:33;;;;;;;3.87;0.80;;;;;;;10.78;84.13;99796.27;1649906;85;21499;-71
2021/09/25 03:13:00;;;;;;;3.67;0.90;;;;;;;10.79;84.18;99791.72;1651083;85;22040;-71
2021/09/25 03:15:26;;;;;;;3.23;1.20;;;;;;;10.78;84.14;99800.28;1647696;85;21305;-72
2021/09/25 03:17:53;;;;;;;4.20;1.30;;;;;;;10.80;84.13;99809.36;1653549;85;21912;-72
2021/09/25 03:20:20;;;;;;;3.70;1.53;;;;;;;10.79;84.06;99817.09;1644321;85;21270;-72
2021/09/25 03:22:47;;;;;;;5.80;0.93;;;;;;;10.79;84.08;99817.92;1646398;85;21897;-72
2021/09/25 03:25:14;;;;;;;4.07;1.10;;;;;;;10.79;84.11;99814.42;1618316;87;21373;-71
2021/09/25 03:27:46;;;;;;;;;;;;;;;10.80;84.06;99825.39;1654916;85;21078;-71
2021/09/25 03:30:15;;;;;;;2.53;1.10;;;;;;;10.78;83.99;99826.20;1654243;85;21731;-72
2021/09/25 03:32:45;;;;;;;3.27;1.03;;;;;;;10.75;84.11;99832.09;1649051;85;21356;-71
2021/09/25 03:35:14;;;;;;;2.70;1.00;;;;;;;10.74;84.23;99840.64;1651636;85;21337;-72
2021/09/25 03:37:41;;;;;;;4.27;1.20;;;;;;;10.72;84.40;99840.64;1644196;85;21240;-72
2021/09/25 03:40:15;;;;;;;2.10;0.93;;;;;;;10.71;84.58;99850.53;1639515;85;21768;-72
2021/09/25 03:42:44;;;;;;;2.93;0.93;;;;;;;10.69;84.86;99858.02;1647869;86;21283;-71
2021/09/25 03:45:11;;;;;;;4.10;1.00;;;;;;;10.68;85.10;99859.09;1650502;85;21419;-71
2021/09/25 03:47:40;;;;;;;3.97;1.20;;;;;;;10.65;85.27;99862.86;1623405;86;21879;-72
2021/09/25 03:50:08;;;;;;;3.23;0.90;;;;;;;10.63;85.52;99870.33;1647107;86;21229;-72
2021/09/25 03:52:38;;;;;;;4.43;1.20;;;;;;;10.63;85.65;99872.48;1642991;85;21380;-72
2021/09/25 03:55:07;;;;;;;3.37;1.10;;;;;;;10.63;85.78;99876.49;1650418;85;21231;-71
2021/09/25 03:57:36;;;;;;;5.00;1.20;;;;;;;10.63;85.90;99882.34;1644578;85;21275;-72
2021/09/25 04:00:04;;;;;;;2.93;1.10;;;;;;;10.63;86.01;99885.02;1655983;85;21135;-72
2021/09/25 04:02:31;;;;;;;3.77;1.20;;;;;;;10.62;86.08;99892.23;1644417;86;21403;-71
2021/09/25 04:04:58;;;;;;;3.03;1.20;;;;;;;10.63;86.13;99891.69;1645959;85;21374;-72
2021/09/25 04:07:25;;;;;;;2.67;1.03;;;;;;;10.62;86.18;99897.58;1654949;85;21442;-72
2021/09/25 04:09:51;;;;;;;4.50;1.60;;;;;;;10.61;86.24;99895.19;1647493;85;21874;-71
2021/09/25 04:12:20;;;;;;;3.07;1.30;;;;;;;10.60;86.27;99900.28;1647177;85;21343;-71
2021/09/25 04:14:47;;;;;;;6.40;1.50;;;;;;;10.57;86.37;99909.63;1643229;85;21272;-70
2021/09/25 04:17:15;;;;;;;5.53;1.40;;;;;;;10.54;86.51;99918.97;1650045;86;21430;-71
2021/09/25 04:19:41;;;;;;;6.03;1.27;;;;;;;10.51;86.61;99908.84;1647466;85;21370;-71
2021/09/25 04:22:08;;;;;;;2.73;1.20;;;;;;;10.49;86.71;99908.30;1650123;85;21347;-71
2021/09/25 04:24:35;;;;;;;4.43;1.40;;;;;;;10.48;86.72;99908.58;1646733;85;21300;-71
2021/09/25 04:27:04;;;;;;;4.00;1.50;;;;;;;10.45;86.72;99911.80;1647155;85;21478;-71
2021/09/25 04:29:30;;;;;;;3.17;1.10;;;;;;;10.44;86.80;99912.88;1648426;85;21339;-71
2021/09/25 04:31:59;;;;;;;4.23;1.30;;;;;;;10.44;86.86;99915.55;1656568;85;21218;-71
2021/09/25 04:34:29;;;;;;;2.57;1.40;;;;;;;10.46;86.89;99922.73;1647733;86;21275;-72
2021/09/25 04:36:56;;;;;;;4.17;1.40;;;;;;;10.47;86.89;99927.02;1652034;85;21318;-72
2021/09/25 04:39:24;;;;;;;4.20;1.67;;;;;;;10.48;86.92;99930.73;1646646;85;21823;-71
2021/09/25 04:41:52;;;;;;;4.07;1.40;;;;;;;10.52;86.91;99930.45;1652270;85;21771;-72
2021/09/25 04:44:18;;;;;;;3.90;1.30;;;;;;;10.56;86.61;99938.20;1618875;86;21581;-71
2021/09/25 04:46:45;;;;;;;4.03;1.43;;;;;;;10.57;86.56;99932.33;1626080;86;21300;-71
2021/09/25 04:49:15;;;;;;;4.20;1.80;;;;;;;10.59;86.26;99933.37;1619006;88;21291;-72
2021/09/25 04:51:42;;;;;;;4.10;1.60;;;;;;;10.65;86.15;99929.62;1641015;85;21348;-72
2021/09/25 04:54:09;;;;;;;3.93;1.30;;;;;;;10.73;85.97;99942.43;1645031;86;21248;-72
2021/09/25 04:56:36;;;;;;;4.23;1.30;;;;;;;10.80;85.77;99950.41;1608774;87;21365;-72
2021/09/25 04:59:02;;;;;;;2.83;1.20;;;;;;;10.85;85.34;99947.44;1639783;85;21226;-71
2021/09/25 05:01:31;;;;;;;5.83;1.70;;;;;;;10.91;85.22;99952.49;1614691;87;21352;-72
2021/09/25 05:04:01;;;;;;;4.97;1.50;;;;;;;10.99;84.84;99949.77;1653543;85;21338;-72
2021/09/25 05:06:32;;;;;;;4.10;1.50;;;;;;;11.08;84.63;99964.17;1649560;85;21331;-72
2021/09/25 05:08:58;;;;;;;;;;;;;;;11.17;84.15;99967.08;1656553;85;21299;-72
2021/09/25 05:11:30;;;;;;;4.20;1.70;;;;;;;11.22;83.65;99965.19;1643655;85;20176;-71
2021/09/25 05:13:57;;;;;;;2.80;1.30;;;;;;;11.25;82.83;99975.34;1646885;85;21479;-72
2021/09/25 05:16:23;;;;;;;7.03;1.20;;;;;;;11.31;82.86;99983.31;1650236;86;21256;-71
2021/09/25 05:18:50;;;;;;;2.93;1.23;;;;;;;11.37;82.69;99991.03;1645087;85;21288;-72
2021/09/25 05:21:16;;;;;;;4.10;1.27;;;;;;;11.41;81.89;100004.64;1652673;85;21550;-71
2021/09/25 05:23:43;;;;;;;3.40;1.20;;;;;;;11.40;81.87;100005.19;1652448;85;21374;-72
2021/09/25 05:26:10;;;;;;;4.10;1.23;;;;;;;11.38;81.91;100001.98;1652199;86;21324;-71
2021/09/25 05:28:37;;;;;;;3.00;1.27;;;;;;;11.39;81.77;100011.62;1643584;85;21347;-72
2021/09/25 05:31:04;;;;;;;3.50;1.40;;;;;;;11.42;81.69;100019.64;1626060;86;21896;-72
2021/09/25 05:33:30;;;;;;;4.17;1.63;;;;;;;11.42;81.15;100025.78;1650883;85;21476;-72
2021/09/25 05:35:57;;;;;;;3.37;1.40;;;;;;;11.40;80.91;100021.23;1642234;85;21291;-72
2021/09/25 05:38:25;;;;;;;3.17;1.27;;;;;;;11.40;80.69;100018.55;1628006;85;21329;-71
2021/09/25 05:40:54;;;;;;;4.93;1.73;;;;;;;11.37;80.35;100028.47;1648209;85;21439;-72
2021/09/25 05:43:26;;;;;;;6.13;1.53;;;;;;;11.35;80.43;100027.13;1648794;85;21299;-72
2021/09/25 05:45:49;;;;;;;4.23;1.40;;;;;;;11.35;80.39;100029.30;1641969;85;21379;-72
2021/09/25 05:48:16;;;;;;;3.23;1.10;;;;;;;11.38;80.26;100043.97;1639472;87;21285;-72
2021/09/25 05:50:42;;;;;;;2.83;1.13;;;;;;;11.38;80.18;100034.06;1611362;87;21482;-72
2021/09/25 05:53:09;;;;;;;5.17;1.30;;;;;;;11.39;80.26;100045.05;1610976;88;21293;-72
2021/09/25 05:55:40;;;;;;;2.60;1.33;;;;;;;11.38;80.19;100049.31;1637507;85;21341;-73
2021/09/25 05:58:09;;;;;;;6.27;1.40;;;;;;;11.33;80.09;100042.12;1643761;86;21510;-73
2021/09/25 06:00:36;;;;;;;2.97;1.20;;;;;;;11.28;80.05;100048.28;1615791;86;21387;-73
2021/09/25 06:03:03;;;;;;;3.47;1.20;;;;;;;11.27;79.97;100070.75;1642366;85;21808;-72
2021/09/25 06:05:31;;;;;;;4.23;1.20;;;;;;;11.28;80.10;100062.98;1638963;86;21389;-73
2021/09/25 06:07:58;;;;;;;3.00;1.30;;;;;;;11.27;79.74;100069.41;1639059;86;21365;-73
2021/09/25 06:10:25;;;;;;;3.50;1.07;;;;;;;11.26;79.69;100073.70;1631363;86;21512;-73
2021/09/25 06:12:52;;;;;;;2.90;1.00;;;;;;;11.25;79.40;100097.48;1607773;87;21404;-73
2021/09/25 06:15:19;;;;;;;3.10;1.10;;;;;;;11.26;79.23;100092.42;1644710;85;21386;-73
2021/09/25 06:17:45;;;;;;;3.60;1.13;;;;;;;11.26;78.92;100106.59;1646632;85;21354;-72
2021/09/25 06:20:12;;;;;;;2.83;1.20;;;;;;;11.25;78.79;100104.17;1648735;85;21404;-73
2021/09/25 06:22:39;;;;;;;3.90;1.10;;;;;;;11.26;78.43;100105.79;1646737;85;21534;-71
2021/09/25 06:25:06;;;;;;;2.97;0.90;;;;;;;11.26;78.73;100103.91;1648665;85;21844;-71
2021/09/25 06:27:33;;;;;;;4.90;1.00;;;;;;;11.27;78.76;100114.06;1646179;85;21784;-72
2021/09/25 06:30:01;;;;;;;3.43;1.40;;;;;;;11.28;78.59;100104.42;1633016;87;21726;-71
2021/09/25 06:32:28;;;;;;;2.97;1.20;;;;;;;11.30;78.63;100113.52;1626278;86;21223;-72
2021/09/25 06:34:55;;;;;;;3.43;1.03;;;;;;;11.32;78.49;100119.41;1622382;86;21779;-71
2021/09/25 06:37:21;;;;;;;2.20;0.97;;;;;;;11.43;78.08;100111.61;1640392;85;21400;-71
2021/09/25 06:39:48;;;;;;;4.47;1.40;;;;;;;11.33;77.89;100114.31;1633527;87;21749;-72
2021/09/25 06:42:15;;;;;;;3.60;1.10;;;;;;;11.29;77.76;100105.25;1644342;85;21231;-71
2021/09/25 06:44:43;;;;;;;4.67;1.30;;;;;;;11.32;77.85;100114.57;1644441;85;21326;-72
2021/09/25 06:47:09;;;;;;;3.20;1.27;;;;;;;11.35;77.84;100120.20;1645592;85;21923;-72
2021/09/25 06:49:36;;;;;;;4.10;1.23;;;;;;;11.36;77.89;100125.01;1647954;85;21406;-71
2021/09/25 06:52:04;;;;;;;2.77;1.20;;;;;;;11.36;77.81;100125.01;1651659;86;21295;-72
2021/09/25 06:54:34;;;;;;;5.40;1.53;;;;;;;11.38;77.75;100135.67;1624111;86;21426;-73
2021/09/25 06:57:04;;;;;;;3.53;1.10;;;;;;;11.41;77.67;100141.02;1624980;88;21292;-72
2021/09/25 06:59:33;;;;;;;3.15;1.22;;;;;;;11.46;77.67;100142.36;1621578;86;21892;-73
2021/09/25 07:02:01;;;;;;;3.33;1.20;;;;;;;11.54;77.51;100152.48;1620062;86;21055;-72
2021/09/25 07:04:28;;;;;;;4.87;1.20;;;;;;;11.62;77.18;100153.27;1646888;85;21389;-72
2021/09/25 07:06:55;;;;;;;4.33;1.20;;;;;;;11.74;76.20;100159.63;1629123;86;21435;-72
2021/09/25 07:09:22;;;;;;;2.60;1.00;;;;;;;11.74;76.20;100159.63;1623341;86;21576;-72
2021/09/25 07:11:50;;;;;;;3.67;1.20;;;;;;;11.83;76.20;100163.33;1647023;85;21972;-72
2021/09/25 07:14:17;;;;;;;3.93;1.33;;;;;;;11.92;75.68;100172.97;1647663;85;21396;-72
2021/09/25 07:16:45;;;;;;;3.97;1.20;;;;;;;12.00;75.54;100153.64;1645355;85;22645;-72
2021/09/25 07:19:12;;;;;;;4.07;1.00;;;;;;;12.14;75.21;100149.30;1649811;85;21875;-73
2021/09/25 07:21:39;;;;;;;2.80;1.00;;;;;;;12.29;74.79;100139.02;1646247;85;21595;-72
2021/09/25 07:24:06;;;;;;;3.90;1.10;;;;;;;12.45;74.16;100145.07;1630162;86;21632;-72
2021/09/25 07:26:32;;;;;;;4.33;1.17;;;;;;;12.51;73.21;100151.20;1636753;86;21913;-72
2021/09/25 07:28:59;;;;;;;4.40;1.40;;;;;;;12.59;72.58;100155.95;1640978;86;22201;-73
2021/09/25 07:31:25;;;;;;;4.50;1.10;;;;;;;12.71;71.60;100152.91;1648761;85;22076;-72
2021/09/25 07:33:52;;;;;;;3.47;1.27;;;;;;;12.78;71.54;100160.09;1640712;87;21741;-72
2021/09/25 07:36:19;;;;;;;3.30;1.00;;;;;;;12.78;71.54;100160.09;1625509;86;21606;-73
2021/09/25 07:38:45;;;;;;;2.33;1.10;;;;;;;12.81;71.06;100161.66;1658557;85;21598;-73
2021/09/25 07:41:12;;;;;;;2.87;1.20;;;;;;;12.79;71.20;100164.36;1651598;85;21776;-72
2021/09/25 07:43:39;;;;;;;3.90;0.97;;;;;;;12.79;71.20;100164.36;1651864;85;21540;-72
2021/09/25 07:46:05;;;;;;;7.87;1.80;;;;;;;12.73;71.67;100174.31;1650540;85;22298;-72
2021/09/25 07:48:32;;;;;;;3.90;1.20;;;;;;;12.73;71.67;100174.31;1646956;85;21751;-71
2021/09/25 07:50:58;;;;;;;3.57;1.30;;;;;;;12.72;71.09;100175.40;1649721;86;21599;-70
2021/09/25 07:53:25;;;;;;;4.23;1.40;;;;;;;12.74;71.04;100177.81;1648675;85;21572;-71
2021/09/25 07:55:52;;;;;;;2.17;1.00;;;;;;;12.73;71.48;100181.02;1644045;85;21718;-72
2021/09/25 07:58:19;;;;;;;4.90;1.30;;;;;;;12.73;71.48;100181.02;1643663;85;21737;-73
2021/09/25 08:00:45;;;;;;;5.47;1.63;;;;;;;12.74;71.25;100178.61;1657375;85;22275;-72
2021/09/25 08:03:12;;;;;;;6.40;1.57;;;;;;;12.74;71.25;100178.61;1653065;85;21737;-72
2021/09/25 08:05:39;;;;;;;4.53;1.47;;;;;;;12.78;70.64;100177.51;1652259;85;21658;-72
2021/09/25 08:08:05;;;;;;;4.97;1.40;;;;;;;12.90;71.16;100176.61;1631347;86;21812;-71
2021/09/25 08:10:32;;;;;;;5.20;1.70;;;;;;;12.90;71.16;100176.61;1633396;86;21721;-72
2021/09/25 08:12:58;;;;;;;4.07;1.50;;;;;;;13.01;71.51;100182.67;1608466;87;22238;-73
2021/09/25 08:15:25;;;;;;;4.93;1.50;;;;;;;13.12;71.26;100173.44;1655903;85;21715;-72
2021/09/25 08:17:52;;;;;;;6.93;1.97;;;;;;;13.19;71.33;100183.29;1619179;86;21694;-72
2021/09/25 08:20:20;;;;;;;4.43;1.60;;;;;;;13.31;71.25;100181.61;1631811;86;22854;-72
2021/09/25 08:22:47;;;;;;;3.07;1.40;;;;;;;13.43;70.54;100187.94;1619859;86;22058;-72
2021/09/25 08:25:14;;;;;;;3.47;1.40;;;;;;;13.49;70.17;100194.81;1628732;86;21775;-73
2021/09/25 08:27:40;;;;;;;6.50;1.87;;;;;;;13.50;69.44;100187.84;1626718;86;22170;-73
2021/09/25 08:30:09;;;;;;;4.63;1.50;;;;;;;13.51;69.56;100192.66;1651726;85;22197;-73
2021/09/25 08:32:36;;;;;;;5.23;2.00;;;;;;;13.58;69.67;100200.62;1648750;85;22257;-72
2021/09/25 08:35:07;;;;;;;4.20;1.77;;;;;;;13.61;69.37;100203.28;1647226;85;21855;-71
2021/09/25 08:37:32;;;;;;;4.17;1.63;;;;;;;13.68;69.18;100204.28;1650698;85;22261;-71
2021/09/25 08:39:58;;;;;;;6.13;2.07;;;;;;;13.68;69.18;100204.28;1645611;85;21078;-71
2021/09/25 08:42:27;;;;;;;4.67;1.50;;;;;;;13.73;69.44;100217.66;1650209;85;22320;-72
2021/09/25 08:44:55;;;;;;;6.23;2.00;;;;;;;13.77;69.01;100219.47;1657801;85;22438;-72
2021/09/25 08:47:23;;;;;;;5.07;2.07;;;;;;;13.79;69.11;100217.86;1651561;85;21596;-72
2021/09/25 08:49:50;;;;;;;5.10;2.47;;;;;;;13.79;69.11;100217.86;1653170;85;21143;-71
2021/09/25 08:52:18;;;;;;;4.43;1.80;;;;;;;13.86;68.97;100227.70;1628662;85;22527;-72
2021/09/25 08:54:45;;;;;;;4.73;1.60;;;;;;;13.95;68.62;100221.13;1657253;85;21712;-72
2021/09/25 08:57:14;;;;;;;4.50;1.73;;;;;;;14.02;68.52;100222.40;1644954;85;21789;-71
2021/09/25 08:59:41;;;;;;;7.90;1.53;;;;;;;14.09;68.63;100226.08;1652375;85;21077;-72
2021/09/25 09:02:18;;;;;;;6.20;1.67;;;;;;;14.11;68.00;100221.75;1649398;85;21108;-72
2021/09/25 09:04:53;;;;;;;3.73;1.50;;;;;;;14.12;68.04;100223.36;1641909;85;21032;-72
2021/09/25 09:07:28;;;;;;;5.10;1.50;;;;;;;14.10;67.83;100225.53;1646222;85;21133;-73
2021/09/25 09:09:55;;;;;;;4.33;1.47;;;;;;;14.10;67.71;100231.69;1650044;85;21180;-73
2021/09/25 09:12:28;;;;;;;6.30;1.80;;;;;;;14.09;67.81;100227.42;1637737;85;21089;-73
2021/09/25 09:14:55;;;;;;;5.37;1.60;;;;;;;14.08;67.92;100226.63;1653028;85;21150;-73
2021/09/25 09:17:27;;;;;;;4.00;1.50;;;;;;;14.06;67.95;100240.08;1645449;85;21518;-72
2021/09/25 09:19:58;;;;;;;4.07;1.43;;;;;;;14.06;67.92;100231.47;1649419;85;21133;-73
2021/09/25 09:22:26;;;;;;;3.80;1.23;;;;;;;14.04;67.76;100234.98;1641676;85;21207;-73
2021/09/25 09:24:57;;;;;;;6.03;1.47;;;;;;;14.00;67.54;100222.42;1636842;85;21077;-73
2021/09/25 09:27:28;;;;;;;5.10;1.90;;;;;;;14.03;67.60;100222.64;1644995;85;21602;-72
2021/09/25 09:30:12;;;;;;;6.20;1.40;;;;;;;14.04;67.19;100221.55;1648995;85;21081;-73
2021/09/25 09:32:42;;;;;;;3.53;1.37;;;;;;;14.09;67.21;100218.02;1649556;85;21495;-72
2021/09/25 09:35:12;;;;;;;6.00;1.63;;;;;;;14.16;67.21;100219.00;1646842;85;21075;-73
2021/09/25 09:37:39;;;;;;;4.43;1.43;;;;;;;14.18;66.62;100220.33;1641803;85;21165;-72
2021/09/25 09:40:08;;;;;;;3.10;1.20;;;;;;;14.19;66.77;100220.57;1649576;85;21145;-72
2021/09/25 09:42:48;;;;;;;4.13;1.53;;;;;;;14.20;65.80;100226.73;1650512;85;21061;-70
2021/09/25 09:45:38;;;;;;;5.10;1.60;;;;;;;14.14;65.50;100227.34;1649801;85;21258;-70
2021/09/25 09:48:09;;;;;;;3.70;1.20;;;;;;;14.14;65.55;100221.97;1630065;85;21158;-72
2021/09/25 09:50:40;;;;;;;;;;;;;;;14.14;65.55;100221.97;1617904;85;21090;-72
2021/09/25 09:53:13;;;;;;;6.12;1.72;;;;;;;14.16;65.44;100218.45;1649520;87;21076;-71
2021/09/25 09:55:39;;;;;;;6.60;1.60;;;;;;;14.16;65.89;100227.86;1649549;85;21080;-71
2021/09/25 09:58:07;;;;;;;4.10;1.50;;;;;;;14.13;65.46;100227.09;1665998;85;21089;-72
2021/09/25 10:00:36;;;;;;;3.70;1.40;;;;;;;14.14;65.75;100217.94;1675035;85;21577;-72
2021/09/25 10:03:05;;;;;;;4.43;1.53;;;;;;;14.16;65.80;100221.14;1631900;86;21062;-71
2021/09/25 10:05:32;;;;;;;6.97;1.97;;;;;;;14.25;66.14;100215.39;1643078;85;21118;-71
2021/09/25 10:08:01;;;;;;;5.70;1.70;;;;;;;14.25;66.14;100215.39;1646304;85;21746;-71
2021/09/25 10:10:32;;;;;;;6.27;1.90;;;;;;;14.28;66.39;100228.24;1646446;85;21205;-71
2021/09/25 10:12:56;;;;;;;7.53;1.83;;;;;;;14.30;66.37;100217.19;1649778;85;21069;-71
2021/09/25 10:15:23;;;;;;;7.83;2.00;;;;;;;14.33;66.53;100210.45;1642788;85;21093;-72
2021/09/25 10:17:50;;;;;;;5.73;1.60;;;;;;;14.36;66.57;100213.35;1656356;85;21122;-71
2021/09/25 10:20:16;;;;;;;6.57;1.90;;;;;;;14.38;66.28;100217.08;1653099;85;21577;-71
2021/09/25 10:22:45;;;;;;;3.40;1.50;;;;;;;14.37;66.16;100217.63;1638624;85;21119;-71
2021/09/25 10:25:16;;;;;;;6.17;1.70;;;;;;;14.37;65.99;100212.25;1653148;86;21071;-71
2021/09/25 10:27:50;;;;;;;3.70;1.40;;;;;;;14.40;65.59;100215.70;1643210;85;21114;-71
2021/09/25 10:30:17;;;;;;;3.70;1.50;;;;;;;14.48;66.00;100218.30;1663415;85;21109;-72
2021/09/25 10:32:51;;;;;;;7.00;2.07;;;;;;;14.61;65.89;100214.09;1613851;86;21713;-72
2021/09/25 10:35:28;;;;;;;4.23;1.40;;;;;;;14.77;65.12;100212.23;1621135;86;21057;-71
2021/09/25 10:38:01;;;;;;;5.57;1.40;;;;;;;14.98;64.97;100206.53;1625661;86;21119;-71
2021/09/25 10:40:35;;;;;;;4.13;1.40;;;;;;;15.11;63.08;100209.00;1625539;87;21649;-72
2021/09/25 10:43:21;;;;;;;4.50;1.40;;;;;;;15.17;62.85;100207.27;1623381;85;21584;-72
2021/09/25 10:45:57;;;;;;;3.93;1.30;;;;;;;15.32;63.11;100200.02;1622323;87;21493;-71
2021/09/25 10:48:34;;;;;;;4.50;1.83;;;;;;;15.42;61.71;100195.23;1620453;87;21174;-71
2021/09/25 10:51:13;;;;;;;5.00;1.80;;;;;;;15.49;61.75;100193.49;1644988;87;21082;-71
2021/09/25 10:53:49;;;;;;;5.63;1.50;;;;;;;15.61;61.68;100188.42;1649110;85;21019;-71
2021/09/25 10:56:27;;;;;;;4.80;1.33;;;;;;;15.79;61.18;100193.47;1647935;87;21846;-70
2021/09/25 10:59:08;;;;;;;5.80;1.35;;;;;;;15.92;61.31;100179.74;1647735;85;21086;-70
2021/09/25 11:01:47;;;;;;;4.10;1.43;;;;;;;16.10;60.78;100177.48;1650070;85;21071;-72
2021/09/25 11:04:26;;;;;;;5.03;1.37;;;;;;;16.32;59.66;100172.69;1648217;87;21032;-72
2021/09/25 11:07:08;;;;;;;5.73;1.10;;;;;;;16.39;58.99;100177.66;1645195;85;21066;-71
2021/09/25 11:09:43;;;;;;;4.63;1.50;;;;;;;16.40;57.74;100173.84;1647095;85;22216;-72
2021/09/25 11:12:22;;;;;;;4.87;1.20;;;;;;;16.39;58.13;100179.00;1635209;87;21607;-73
2021/09/25 11:14:58;;;;;;;4.00;1.30;;;;;;;16.46;58.16;100192.06;1640933;85;21138;-72
2021/09/25 11:17:38;;;;;;;7.17;1.67;;;;;;;16.50;55.97;100179.55;1642572;85;21130;-73
2021/09/25 11:20:09;;;;;;;3.50;1.40;;;;;;;16.50;55.68;100179.00;1640968;85;21581;-73
2021/09/25 11:22:55;;;;;;;3.97;1.20;;;;;;;16.60;54.96;100176.06;1638860;85;21843;-72
2021/09/25 11:25:32;;;;;;;3.23;1.27;;;;;;;16.74;54.66;100180.59;1647672;85;21091;-73
2021/09/25 11:28:06;;;;;;;4.17;1.30;;;;;;;16.73;53.98;100173.06;1644673;86;21057;-73
2021/09/25 11:30:45;;;;;;;4.67;1.40;;;;;;;16.67;54.41;100178.88;1613597;87;21084;-74
2021/09/25 11:33:14;;;;;;;3.47;1.40;;;;;;;16.64;55.35;100178.94;1616475;86;21135;-74
2021/09/25 11:35:56;;;;;;;5.37;1.30;;;;;;;16.68;56.33;100183.95;1613980;86;21079;-73